logo
Rechercher aéroport 
image banner adimage banner adimage banner ad
image banner ad

SWIY - Santa Isabel Do Morro

Situé à Lagoa Da Confusao, Brazil

ICAO - SWIY, IATA - IDO

Données fournies par Airmate  

Information générale

Coordonnées: S11°34'24" W50°40'6"
Élévation : 646 feet MSL.
Variation magnétique : -20.821136177° East
Voir autres Aéroports à Tocatins

Données opérationnelles

Special qualification required
Heure actuelle UTC:
Heure actuelle locale:
Météo à : - ( 0 km )
METAR: UUBC 171750Z 12005MPS 4100 2000NW R13/2000D SHRA BKN025CB 20/20 Q1007 R13/290150 NOSIG RMK QFE737/0983
Voir NOTAMs / SUP AIP / TFR affectant cet aéroport [VIEW]
Fréquences de communication: [VIEW]

Pistes:

Identifiant RWYQFULongueur (ft)Largeur (ft)SurfaceLDA (ft)
12505298ASPH
30505298ASPH

Coordonnées de l'aéroport

Adresse: Lagoa Da Confusao Brazil

Vue satellite de SWIY